Time;durP1;ratioP1;P1;durP2;ratioP2;P2;SDS_P1;SDS_P2;PMS_P1;PMS_P2;Temp;Humidity;BMP_temperature;BMP_pressure;BME280_temperature;BME280_humidity;BME280_pressure;Samples;Min_cycle;Max_cycle;Signal;HPM_P1;HPM_P2
2023/06/16 00:01:04;;;;;;;12.38;5.78;;;18.00;19.80;;;;;;5073621;28;20439;-75
2023/06/16 00:03:34;;;;;;;8.63;5.10;;;18.00;19.90;;;;;;5073914;28;20470;-74
2023/06/16 00:06:12;;;;;;;9.75;6.10;;;18.00;19.90;;;;;;5073978;28;20422;-74
2023/06/16 00:08:41;;;;;;;11.23;6.20;;;17.90;19.90;;;;;;5074833;28;20463;-72
2023/06/16 00:11:07;;;;;;;10.45;5.70;;;17.90;20.00;;;;;;5074504;28;20382;-73
2023/06/16 00:13:32;;;;;;;9.27;5.47;;;18.00;20.10;;;;;;5075620;28;20467;-73
2023/06/16 00:15:58;;;;;;;10.10;5.65;;;17.90;20.30;;;;;;5072165;28;20399;-74
2023/06/16 00:18:25;;;;;;;11.50;5.82;;;17.80;20.60;;;;;;5074641;28;20391;-72
2023/06/16 00:20:51;;;;;;;10.57;6.07;;;17.80;20.80;;;;;;5073720;28;20911;-72
2023/06/16 00:23:20;;;;;;;10.18;6.07;;;17.80;21.10;;;;;;5072360;28;20388;-73
2023/06/16 00:25:45;;;;;;;12.07;6.07;;;17.80;21.10;;;;;;5072145;28;20465;-72
2023/06/16 00:28:11;;;;;;;14.38;6.20;;;17.80;22.30;;;;;;5072158;28;20437;-72
2023/06/16 00:30:36;;;;;;;15.23;6.17;;;17.70;22.30;;;;;;5072052;28;20399;-73
2023/06/16 00:33:02;;;;;;;12.10;6.20;;;17.70;22.50;;;;;;5071610;28;20388;-72
2023/06/16 00:35:27;;;;;;;10.20;6.20;;;17.60;22.90;;;;;;5071742;28;20412;-73
2023/06/16 00:37:53;;;;;;;21.47;6.30;;;17.70;22.60;;;;;;5072095;28;20390;-72
2023/06/16 00:40:19;;;;;;;8.90;5.50;;;17.60;22.60;;;;;;5070594;28;20894;-73
2023/06/16 00:42:45;;;;;;;11.60;6.22;;;17.60;23.00;;;;;;5072102;28;20386;-74
2023/06/16 00:45:10;;;;;;;11.30;6.50;;;17.40;23.80;;;;;;5073339;28;20758;-73
2023/06/16 00:47:36;;;;;;;12.27;7.18;;;17.30;24.40;;;;;;5071564;28;20371;-73
2023/06/16 00:50:02;;;;;;;12.57;6.15;;;17.10;25.40;;;;;;5071408;28;20415;-72
2023/06/16 00:52:30;;;;;;;13.20;6.45;;;17.00;26.30;;;;;;5071171;28;20415;-73
2023/06/16 00:54:57;;;;;;;11.70;6.45;;;17.10;26.20;;;;;;5071407;28;20380;-73
2023/06/16 00:57:23;;;;;;;10.80;6.00;;;17.30;25.70;;;;;;5071432;28;20394;-74
2023/06/16 00:59:48;;;;;;;9.93;6.00;;;17.40;25.30;;;;;;5071566;28;20454;-73
2023/06/16 01:02:14;;;;;;;14.05;6.60;;;17.40;25.10;;;;;;5071346;28;21053;-74
2023/06/16 01:04:40;;;;;;;12.43;6.43;;;17.40;25.20;;;;;;5071882;28;20853;-72
2023/06/16 01:07:13;;;;;;;8.85;6.50;;;17.40;25.30;;;;;;5072507;28;20995;-74
2023/06/16 01:09:55;;;;;;;11.15;6.38;;;17.30;25.40;;;;;;5072713;28;20386;-72
2023/06/16 01:12:35;;;;;;;9.60;6.18;;;17.20;25.90;;;;;;5071160;28;20413;-72
2023/06/16 01:15:06;;;;;;;9.63;6.20;;;16.90;26.90;;;;;;5071542;28;20719;-72
2023/06/16 01:17:37;;;;;;;11.20;6.45;;;16.80;28.00;;;;;;5070077;28;20396;-71
2023/06/16 01:20:08;;;;;;;9.87;6.07;;;16.60;29.00;;;;;;5070863;28;20488;-73
2023/06/16 01:22:54;;;;;;;13.50;7.10;;;16.70;28.40;;;;;;5070654;28;20725;-72
2023/06/16 01:25:28;;;;;;;14.90;6.97;;;16.60;29.10;;;;;;5070877;28;20858;-72
2023/06/16 01:27:54;;;;;;;10.85;6.22;;;16.50;28.60;;;;;;5070570;28;20380;-71
2023/06/16 01:30:22;;;;;;;14.33;6.97;;;16.70;27.60;;;;;;5070872;28;20433;-72
2023/06/16 01:32:52;;;;;;;11.82;6.72;;;16.70;27.80;;;;;;5070376;28;20469;-73
2023/06/16 01:35:21;;;;;;;12.95;6.95;;;16.70;27.80;;;;;;5070955;28;20434;-73
2023/06/16 01:37:50;;;;;;;9.52;6.47;;;16.60;28.80;;;;;;5070491;28;20752;-74
2023/06/16 01:40:17;;;;;;;11.23;6.50;;;16.70;28.80;;;;;;5070686;28;20450;-71
2023/06/16 01:42:45;;;;;;;12.30;6.65;;;16.60;29.70;;;;;;5070594;28;20462;-74
2023/06/16 01:45:12;;;;;;;14.30;6.75;;;16.80;29.00;;;;;;5070545;28;20387;-72
2023/06/16 01:47:38;;;;;;;11.18;6.65;;;16.90;28.30;;;;;;5071192;28;20380;-74
2023/06/16 01:50:04;;;;;;;11.93;6.70;;;16.90;28.30;;;;;;5071741;28;20852;-72
2023/06/16 01:52:29;;;;;;;12.05;6.18;;;16.90;28.10;;;;;;5074436;28;20682;-73
2023/06/16 01:54:55;;;;;;;11.32;7.20;;;16.80;27.90;;;;;;5070558;28;20387;-74
2023/06/16 01:57:21;;;;;;;14.43;6.53;;;16.70;28.30;;;;;;5070294;28;20388;-71
2023/06/16 01:59:50;;;;;;;10.65;6.47;;;16.70;27.90;;;;;;5070125;28;20395;-72
2023/06/16 02:02:19;;;;;;;9.00;6.10;;;16.70;28.20;;;;;;5070550;28;20391;-72
2023/06/16 02:04:48;;;;;;;11.80;6.60;;;16.60;28.30;;;;;;5070266;28;20380;-74
2023/06/16 02:07:18;;;;;;;12.27;6.75;;;16.60;27.70;;;;;;5070416;28;20379;-73
2023/06/16 02:09:47;;;;;;;11.98;6.22;;;16.40;28.40;;;;;;5070302;28;20879;-73
2023/06/16 02:12:13;;;;;;;13.05;6.30;;;16.40;28.90;;;;;;5070515;28;20376;-70
2023/06/16 02:14:40;;;;;;;13.73;6.30;;;16.40;28.80;;;;;;5070313;28;20388;-71
2023/06/16 02:17:08;;;;;;;10.38;6.47;;;16.60;27.10;;;;;;5070376;28;20384;-73
2023/06/16 02:19:33;;;;;;;10.77;6.03;;;16.80;26.40;;;;;;5070508;28;20383;-74
2023/06/16 02:22:00;;;;;;;9.90;6.80;;;16.80;25.90;;;;;;5070127;28;20510;-72
2023/06/16 02:24:26;;;;;;;11.90;6.25;;;16.80;25.70;;;;;;5070280;28;20441;-72
2023/06/16 02:26:51;;;;;;;11.00;6.38;;;16.90;25.40;;;;;;5068780;28;20392;-72
2023/06/16 02:29:17;;;;;;;14.80;7.00;;;16.90;25.50;;;;;;5070206;28;20376;-72
2023/06/16 02:31:47;;;;;;;13.57;6.33;;;16.90;25.60;;;;;;5069901;28;20470;-73
2023/06/16 02:34:12;;;;;;;13.10;6.40;;;16.80;25.40;;;;;;5070516;28;20411;-74
2023/06/16 02:36:38;;;;;;;9.95;6.07;;;16.90;26.30;;;;;;5070236;28;20497;-72
2023/06/16 02:39:04;;;;;;;10.50;6.90;;;16.80;25.70;;;;;;5072018;28;20380;-72
2023/06/16 02:41:29;;;;;;;11.43;6.40;;;16.70;26.70;;;;;;5073454;28;20453;-75
2023/06/16 02:43:55;;;;;;;12.88;6.50;;;16.60;27.20;;;;;;5072581;28;20394;-72
2023/06/16 02:46:21;;;;;;;9.23;6.10;;;16.50;27.00;;;;;;5073457;28;20396;-72
2023/06/16 02:48:47;;;;;;;12.60;6.35;;;16.30;28.20;;;;;;5073638;28;20391;-73
2023/06/16 02:51:12;;;;;;;9.77;6.10;;;16.40;27.50;;;;;;5073539;28;20806;-73
2023/06/16 02:53:39;;;;;;;19.90;6.70;;;16.30;27.90;;;;;;5073235;28;20375;-73
2023/06/16 02:56:06;;;;;;;13.13;6.47;;;16.30;28.30;;;;;;5061530;28;20404;-71
2023/06/16 02:58:32;;;;;;;9.57;6.15;;;16.20;28.50;;;;;;5067095;28;20395;-78
2023/06/16 03:00:58;;;;;;;11.70;6.90;;;16.30;28.00;;;;;;5073080;28;20479;-73
2023/06/16 03:03:25;;;;;;;10.33;6.60;;;16.30;28.20;;;;;;5062676;28;20418;-73
2023/06/16 03:05:51;;;;;;;12.50;7.43;;;16.40;27.70;;;;;;5071597;28;20383;-72
2023/06/16 03:08:16;;;;;;;18.10;9.57;;;16.50;27.10;;;;;;5055051;28;20397;-72
2023/06/16 03:10:42;;;;;;;30.87;14.10;;;16.60;26.50;;;;;;5089470;28;20525;-72
2023/06/16 03:13:08;;;;;;;26.00;14.02;;;16.80;26.50;;;;;;5074246;28;20394;-72
2023/06/16 03:15:35;;;;;;;24.30;14.80;;;16.90;26.00;;;;;;5061867;28;20485;-73
2023/06/16 03:18:00;;;;;;;19.58;10.20;;;16.90;25.80;;;;;;5053513;28;20925;-72
2023/06/16 03:20:26;;;;;;;15.45;8.35;;;16.90;25.60;;;;;;5053357;28;20507;-72
2023/06/16 03:22:51;;;;;;;11.47;6.73;;;16.90;25.30;;;;;;5062728;28;20777;-72
2023/06/16 03:25:17;;;;;;;12.20;6.10;;;16.90;25.50;;;;;;5073137;28;20384;-72
2023/06/16 03:27:42;;;;;;;11.47;6.03;;;16.80;25.70;;;;;;5073275;28;20754;-71
2023/06/16 03:30:08;;;;;;;10.70;6.43;;;16.70;25.60;;;;;;5073363;28;20391;-73
2023/06/16 03:32:35;;;;;;;13.90;6.70;;;16.70;26.30;;;;;;5073277;28;20422;-72
2023/06/16 03:35:04;;;;;;;11.77;6.20;;;16.60;26.70;;;;;;5073646;28;20730;-71
2023/06/16 03:37:31;;;;;;;9.25;5.93;;;16.40;27.20;;;;;;5072983;28;20390;-72
2023/06/16 03:39:56;;;;;;;11.63;5.88;;;16.50;27.00;;;;;;5071656;28;20400;-73
2023/06/16 03:42:22;;;;;;;11.48;6.50;;;16.40;27.50;;;;;;5072702;28;20387;-72
2023/06/16 03:44:49;;;;;;;10.63;6.45;;;16.50;27.80;;;;;;5072821;28;20372;-72
2023/06/16 03:47:14;;;;;;;10.80;6.00;;;16.50;28.00;;;;;;5071162;23;20494;-74
2023/06/16 03:49:40;;;;;;;13.00;6.90;;;16.30;29.20;;;;;;5051829;28;20381;-75
2023/06/16 03:52:06;;;;;;;11.53;6.77;;;16.10;30.10;;;;;;5052254;28;20373;-75
2023/06/16 03:54:32;;;;;;;11.60;7.10;;;16.10;30.90;;;;;;5051031;28;20377;-73
2023/06/16 03:56:57;;;;;;;15.60;6.90;;;16.50;29.30;;;;;;5052641;28;20718;-75
2023/06/16 03:59:23;;;;;;;15.10;6.80;;;16.70;28.30;;;;;;5052641;28;20378;-75
2023/06/16 04:01:51;;;;;;;16.02;7.80;;;16.70;27.90;;;;;;5052914;28;20497;-76
2023/06/16 04:04:16;;;;;;;11.02;6.68;;;16.60;28.40;;;;;;5051534;28;20390;-74
2023/06/16 04:06:43;;;;;;;11.77;6.70;;;16.60;28.40;;;;;;5052117;28;20373;-74
2023/06/16 04:09:09;;;;;;;13.13;7.03;;;16.40;29.20;;;;;;5052189;28;21111;-74
2023/06/16 04:11:40;;;;;;;11.52;6.72;;;16.40;29.60;;;;;;5051956;28;20389;-74
2023/06/16 04:14:05;;;;;;;11.95;6.80;;;16.40;29.60;;;;;;5052167;28;20384;-75
2023/06/16 04:16:31;;;;;;;15.10;7.22;;;16.20;30.20;;;;;;5051824;28;20757;-74
2023/06/16 04:18:57;;;;;;;10.23;6.65;;;16.40;30.00;;;;;;5052282;28;20905;-75
2023/06/16 04:21:22;;;;;;;11.30;6.63;;;16.40;30.10;;;;;;5052284;28;20458;-75
2023/06/16 04:23:48;;;;;;;15.90;8.20;;;16.30;30.20;;;;;;5051763;28;20385;-75
2023/06/16 04:26:19;;;;;;;15.00;7.77;;;16.40;30.40;;;;;;5052137;28;20392;-74
2023/06/16 04:28:44;;;;;;;14.32;8.40;;;16.40;29.80;;;;;;5052006;28;20382;-74
2023/06/16 04:31:11;;;;;;;12.70;6.95;;;16.60;29.20;;;;;;5051480;28;20404;-76
2023/06/16 04:33:41;;;;;;;12.98;6.70;;;16.60;29.70;;;;;;5051920;28;20393;-73
2023/06/16 04:36:07;;;;;;;19.02;7.90;;;16.50;30.00;;;;;;5052711;28;20424;-76
2023/06/16 04:38:33;;;;;;;12.13;6.85;;;16.70;29.60;;;;;;5054670;28;20857;-75
2023/06/16 04:40:59;;;;;;;16.75;7.55;;;16.70;28.90;;;;;;5054763;28;20428;-74
2023/06/16 04:43:24;;;;;;;11.30;7.05;;;16.90;28.20;;;;;;5053050;28;20405;-75
2023/06/16 04:45:50;;;;;;;13.57;7.20;;;17.00;27.90;;;;;;5055741;28;20401;-74
2023/06/16 04:48:16;;;;;;;12.30;6.90;;;17.00;28.00;;;;;;5055975;28;20690;-75
2023/06/16 04:50:41;;;;;;;11.10;7.03;;;17.00;27.50;;;;;;5056975;28;20409;-75
2023/06/16 04:53:07;;;;;;;10.00;6.47;;;17.20;26.10;;;;;;5055791;28;20778;-74
2023/06/16 04:55:33;;;;;;;13.33;6.93;;;17.40;25.10;;;;;;5052833;28;20393;-74
2023/06/16 04:57:58;;;;;;;11.18;6.82;;;17.60;24.50;;;;;;5053580;28;20468;-75
2023/06/16 05:00:27;;;;;;;15.67;7.20;;;17.50;25.10;;;;;;5051724;28;20496;-73
2023/06/16 05:02:53;;;;;;;29.65;9.80;;;17.50;25.60;;;;;;5049598;28;20480;-75
2023/06/16 05:05:18;;;;;;;12.63;7.00;;;17.70;25.20;;;;;;5051251;28;20557;-75
2023/06/16 05:07:44;;;;;;;9.63;6.50;;;17.90;24.50;;;;;;5050349;28;20732;-74
2023/06/16 05:10:10;;;;;;;12.85;6.90;;;17.90;24.00;;;;;;5051700;28;20484;-76
2023/06/16 05:12:35;;;;;;;10.57;6.80;;;17.90;23.20;;;;;;5051666;28;20435;-75
2023/06/16 05:15:01;;;;;;;12.70;7.00;;;17.90;23.10;;;;;;5051810;28;20432;-75
2023/06/16 05:17:26;;;;;;;14.50;7.00;;;18.00;22.30;;;;;;5051658;28;20419;-73
2023/06/16 05:19:52;;;;;;;12.05;6.22;;;18.10;21.40;;;;;;5049921;28;20487;-74
2023/06/16 05:22:23;;;;;;;10.00;6.50;;;18.00;21.60;;;;;;5050770;28;20472;-76
2023/06/16 05:24:50;;;;;;;11.50;6.90;;;18.10;21.20;;;;;;5051824;28;20389;-75
2023/06/16 05:27:16;;;;;;;12.93;7.20;;;18.10;21.40;;;;;;5050827;28;20381;-74
2023/06/16 05:29:41;;;;;;;11.70;7.05;;;18.20;21.30;;;;;;5050657;28;20397;-75
2023/06/16 05:32:07;;;;;;;12.30;6.77;;;18.30;20.60;;;;;;5049400;28;20443;-75
2023/06/16 05:34:35;;;;;;;13.47;7.20;;;18.40;20.30;;;;;;5051145;28;20393;-75
2023/06/16 05:37:00;;;;;;;12.90;6.97;;;18.40;20.70;;;;;;5051025;28;20769;-75
2023/06/16 05:39:26;;;;;;;10.00;6.70;;;18.50;20.40;;;;;;5050502;28;20385;-74
2023/06/16 05:41:51;;;;;;;12.20;6.50;;;18.60;20.00;;;;;;5049241;28;20408;-74
2023/06/16 05:44:17;;;;;;;11.90;7.03;;;18.70;20.20;;;;;;5051058;28;21056;-75
2023/06/16 05:46:42;;;;;;;9.00;6.20;;;18.80;20.00;;;;;;5050800;28;20394;-75
2023/06/16 05:49:08;;;;;;;12.27;7.80;;;18.80;19.60;;;;;;5051350;28;20397;-76
2023/06/16 05:51:33;;;;;;;14.20;7.18;;;18.90;19.60;;;;;;5049151;28;20907;-75
2023/06/16 05:53:59;;;;;;;11.65;7.80;;;19.00;19.60;;;;;;5049449;28;20382;-74
2023/06/16 05:56:26;;;;;;;13.40;6.60;;;19.10;18.90;;;;;;5050755;28;20381;-75
2023/06/16 05:58:51;;;;;;;10.30;6.82;;;19.10;18.90;;;;;;5050450;28;20417;-75
2023/06/16 06:01:17;;;;;;;14.60;7.10;;;19.30;19.10;;;;;;5050423;28;20917;-74
2023/06/16 06:03:46;;;;;;;18.03;7.80;;;19.40;18.50;;;;;;5050937;28;20420;-76
2023/06/16 06:06:12;;;;;;;13.65;6.10;;;19.40;18.30;;;;;;5049075;28;20484;-74
2023/06/16 06:08:38;;;;;;;13.20;6.97;;;19.30;18.50;;;;;;5050318;28;20507;-75
2023/06/16 06:11:06;;;;;;;11.90;6.80;;;19.30;18.60;;;;;;5050432;28;20565;-73
2023/06/16 06:13:32;;;;;;;17.80;6.88;;;19.70;18.20;;;;;;5053513;28;20390;-74
2023/06/16 06:15:58;;;;;;;16.42;7.35;;;19.70;18.30;;;;;;5054655;28;20404;-74
2023/06/16 06:18:23;;;;;;;12.15;6.35;;;19.60;18.40;;;;;;5054503;28;20395;-74
2023/06/16 06:20:49;;;;;;;19.58;8.60;;;19.80;18.10;;;;;;5054356;28;20405;-73
2023/06/16 06:23:15;;;;;;;14.05;7.00;;;20.00;17.70;;;;;;5054053;28;20392;-74
2023/06/16 06:25:42;;;;;;;15.25;7.30;;;20.20;16.70;;;;;;5054469;28;20380;-76
2023/06/16 06:28:08;;;;;;;14.45;6.45;;;20.20;16.50;;;;;;5053811;28;20417;-73
2023/06/16 06:30:33;;;;;;;13.90;6.80;;;20.30;16.90;;;;;;5053195;28;20474;-76
2023/06/16 06:33:00;;;;;;;11.90;6.50;;;20.30;16.00;;;;;;5053092;28;20377;-76
2023/06/16 06:35:26;;;;;;;17.35;7.20;;;20.30;16.40;;;;;;5054495;28;20443;-74
2023/06/16 06:37:52;;;;;;;10.45;6.72;;;20.40;15.80;;;;;;5054153;28;20385;-74
2023/06/16 06:40:17;;;;;;;8.13;5.72;;;20.40;16.10;;;;;;5054627;28;20437;-74
2023/06/16 06:42:43;;;;;;;12.60;7.17;;;20.50;16.40;;;;;;5054066;28;20413;-74
2023/06/16 06:45:11;;;;;;;11.77;6.30;;;20.70;16.00;;;;;;5054118;28;20477;-75
2023/06/16 06:47:37;;;;;;;11.65;6.10;;;20.80;15.50;;;;;;5054404;28;20397;-74
2023/06/16 06:50:03;;;;;;;18.63;7.68;;;20.80;15.80;;;;;;5056565;28;20946;-75
2023/06/16 06:52:29;;;;;;;11.15;6.53;;;20.80;16.00;;;;;;5057740;28;20506;-76
2023/06/16 06:54:56;;;;;;;9.40;5.53;;;20.80;16.00;;;;;;5058101;28;20687;-75
2023/06/16 06:57:22;;;;;;;11.20;6.00;;;20.80;15.60;;;;;;5057545;28;20385;-76
2023/06/16 06:59:48;;;;;;;10.65;6.40;;;21.20;15.60;;;;;;5056912;28;20394;-74
2023/06/16 07:02:14;;;;;;;9.60;5.27;;;21.50;14.80;;;;;;5056679;28;20386;-75
2023/06/16 07:04:40;;;;;;;8.63;5.40;;;21.40;14.90;;;;;;5054880;28;20385;-76
2023/06/16 07:07:06;;;;;;;11.10;5.68;;;21.60;14.70;;;;;;5054371;28;20478;-75
2023/06/16 07:09:32;;;;;;;14.20;6.20;;;21.70;14.40;;;;;;5053866;28;20464;-74
2023/06/16 07:11:57;;;;;;;10.20;6.00;;;21.80;13.90;;;;;;5053807;28;20468;-74
2023/06/16 07:14:23;;;;;;;10.27;5.70;;;21.70;14.20;;;;;;5053635;28;20386;-73
2023/06/16 07:16:48;;;;;;;16.15;6.30;;;21.70;14.30;;;;;;5057309;28;20389;-76
2023/06/16 07:19:14;;;;;;;12.00;5.80;;;21.70;14.50;;;;;;5059212;28;20781;-75
2023/06/16 07:21:39;;;;;;;9.75;5.68;;;21.80;13.60;;;;;;5059503;28;20894;-76
2023/06/16 07:24:08;;;;;;;9.07;5.60;;;21.90;13.70;;;;;;5062125;28;20382;-76
2023/06/16 07:26:34;;;;;;;12.45;5.35;;;21.90;12.60;;;;;;5064913;28;20396;-77
2023/06/16 07:29:00;;;;;;;9.77;4.97;;;22.00;12.30;;;;;;5065120;28;20377;-74
2023/06/16 07:31:26;;;;;;;6.65;4.72;;;22.00;10.90;;;;;;5062630;28;20783;-74
2023/06/16 07:33:52;;;;;;;8.00;5.37;;;22.10;10.50;;;;;;5063827;28;20401;-77
2023/06/16 07:36:18;;;;;;;7.40;4.40;;;22.20;9.50;;;;;;5064529;28;20385;-74
2023/06/16 07:38:43;;;;;;;10.10;5.20;;;22.30;9.50;;;;;;5061236;28;20397;-73
2023/06/16 07:41:09;;;;;;;7.00;4.90;;;22.40;9.70;;;;;;5058930;28;20910;-73
2023/06/16 07:43:35;;;;;;;10.15;5.00;;;22.60;9.00;;;;;;5058101;28;20389;-77
2023/06/16 07:46:01;;;;;;;10.45;4.80;;;22.60;8.80;;;;;;5059377;28;20382;-74
2023/06/16 07:48:26;;;;;;;8.15;4.85;;;22.70;6.80;;;;;;5057765;28;20382;-75
2023/06/16 07:50:53;;;;;;;10.40;5.03;;;22.70;6.60;;;;;;5062065;28;20382;-73
2023/06/16 07:53:20;;;;;;;7.85;4.70;;;22.70;6.00;;;;;;5061177;28;20695;-75
2023/06/16 07:55:45;;;;;;;10.07;5.10;;;22.80;5.60;;;;;;5059583;28;20394;-75
2023/06/16 07:58:11;;;;;;;8.33;4.63;;;22.70;5.80;;;;;;5057732;28;20388;-76
2023/06/16 08:00:37;;;;;;;10.20;4.73;;;23.00;2.60;;;;;;5057377;28;20413;-74
2023/06/16 08:03:02;;;;;;;10.77;4.25;;;22.90;3.30;;;;;;5056604;28;20393;-74
2023/06/16 08:05:28;;;;;;;10.80;4.47;;;22.90;4.50;;;;;;5052762;28;20384;-74
2023/06/16 08:07:53;;;;;;;8.88;4.75;;;23.10;3.10;;;;;;5055119;28;20389;-74
2023/06/16 08:10:20;;;;;;;8.43;4.50;;;23.20;3.90;;;;;;5053983;28;20818;-76
2023/06/16 08:12:49;;;;;;;15.00;4.80;;;23.20;4.20;;;;;;5053166;28;20420;-74
2023/06/16 08:15:16;;;;;;;13.82;4.60;;;23.40;3.60;;;;;;5051499;28;20423;-74
2023/06/16 08:17:42;;;;;;;10.50;4.22;;;23.40;3.20;;;;;;5052342;28;20393;-74
2023/06/16 08:20:09;;;;;;;13.15;4.60;;;23.40;3.10;;;;;;5052608;28;20457;-74
2023/06/16 08:22:34;;;;;;;9.82;4.70;;;23.60;2.90;;;;;;5052005;28;20409;-73
2023/06/16 08:25:01;;;;;;;8.90;4.50;;;23.70;2.70;;;;;;5050917;28;20814;-76
2023/06/16 08:27:27;;;;;;;7.43;4.40;;;23.90;1.70;;;;;;5052195;28;20468;-72
2023/06/16 08:29:52;;;;;;;6.67;4.10;;;23.60;1.10;;;;;;5052104;28;20435;-73
2023/06/16 08:32:18;;;;;;;9.80;4.20;;;23.70;1.30;;;;;;5052149;28;20393;-75
2023/06/16 08:34:43;;;;;;;8.10;4.40;;;23.80;1.30;;;;;;5051841;28;20424;-74
2023/06/16 08:37:09;;;;;;;7.10;4.40;;;23.90;1.00;;;;;;5051828;28;20731;-74
2023/06/16 08:39:35;;;;;;;6.72;4.32;;;24.10;1.00;;;;;;5053306;28;20777;-76
2023/06/16 08:42:01;;;;;;;6.93;4.50;;;24.00;1.00;;;;;;5051571;28;20502;-75
2023/06/16 08:44:28;;;;;;;6.80;4.20;;;23.90;1.00;;;;;;5053868;28;20381;-75
2023/06/16 08:46:54;;;;;;;10.03;4.30;;;23.80;1.00;;;;;;5066974;28;20394;-76
2023/06/16 08:49:19;;;;;;;9.13;4.40;;;23.90;1.00;;;;;;5066192;28;20385;-74
2023/06/16 08:51:50;;;;;;;5.72;3.83;;;24.00;1.00;;;;;;5058445;28;20392;-75
2023/06/16 08:54:17;;;;;;;8.32;4.25;;;24.00;1.00;;;;;;5056317;28;20858;-74
2023/06/16 08:56:51;;;;;;;9.02;4.20;;;24.10;1.00;;;;;;5071619;28;20354;-75
2023/06/16 08:59:20;;;;;;;8.03;4.40;;;24.10;1.00;;;;;;5068568;28;20400;-75
2023/06/16 09:01:46;;;;;;;6.85;4.57;;;24.40;1.00;;;;;;5068345;28;20896;-74
2023/06/16 09:04:13;;;;;;;9.27;4.60;;;24.60;1.00;;;;;;5068112;28;20892;-74
2023/06/16 09:06:47;;;;;;;9.45;4.50;;;24.60;1.00;;;;;;5067667;28;20399;-75
2023/06/16 09:09:13;;;;;;;9.75;4.70;;;24.60;1.00;;;;;;5079907;22;20392;-71
2023/06/16 09:11:39;;;;;;;11.27;5.00;;;24.40;1.00;;;;;;5047526;28;20390;-71
2023/06/16 09:14:12;;;;;;;9.93;4.47;;;24.60;1.00;;;;;;5047902;28;20379;-72
2023/06/16 09:16:39;;;;;;;10.47;4.50;;;24.70;1.00;;;;;;5048076;28;20882;-73
2023/06/16 09:19:09;;;;;;;7.97;4.50;;;24.80;1.00;;;;;;5053444;28;20386;-73
2023/06/16 09:21:36;;;;;;;8.50;4.65;;;24.90;1.00;;;;;;5058770;28;20913;-73
2023/06/16 09:24:03;;;;;;;12.00;4.60;;;25.00;1.00;;;;;;5031118;28;20383;-72
2023/06/16 09:26:35;;;;;;;8.15;4.68;;;25.10;1.00;;;;;;5047661;28;20539;-73
2023/06/16 09:29:17;;;;;;;6.90;4.80;;;25.20;1.00;;;;;;5047248;28;20416;-73
2023/06/16 09:31:42;;;;;;;7.80;4.60;;;25.20;1.00;;;;;;5047490;28;20402;-72
2023/06/16 09:34:08;;;;;;;9.20;5.20;;;25.20;1.00;;;;;;5029806;28;20391;-72
2023/06/16 09:36:33;;;;;;;6.50;4.33;;;25.40;1.00;;;;;;5029440;28;20399;-71
2023/06/16 09:38:59;;;;;;;9.93;4.50;;;25.60;1.00;;;;;;5047358;28;20392;-74
2023/06/16 09:41:24;;;;;;;10.57;5.03;;;25.70;1.00;;;;;;5046954;28;20921;-73
2023/06/16 09:43:51;;;;;;;11.93;4.75;;;25.70;1.00;;;;;;5047049;28;20383;-73
2023/06/16 09:46:18;;;;;;;11.52;4.70;;;25.70;1.00;;;;;;5047348;28;20444;-72
2023/06/16 09:48:50;;;;;;;9.02;5.20;;;25.70;1.00;;;;;;5047020;28;20806;-73
2023/06/16 09:51:20;;;;;;;10.20;4.97;;;25.90;1.00;;;;;;5046908;28;20751;-72
2023/06/16 09:53:46;;;;;;;9.40;4.83;;;25.80;1.00;;;;;;5047476;28;20391;-71
2023/06/16 09:56:17;;;;;;;10.93;5.20;;;25.80;1.00;;;;;;5048555;28;20395;-72
2023/06/16 09:58:43;;;;;;;9.43;5.50;;;25.70;1.00;;;;;;5048483;28;20397;-73
2023/06/16 10:01:10;;;;;;;10.05;5.20;;;25.40;1.00;;;;;;5047981;28;20491;-73
2023/06/16 10:03:39;;;;;;;8.00;5.40;;;25.20;1.00;;;;;;5048017;28;20462;-73
2023/06/16 10:06:19;;;;;;;9.07;5.20;;;25.40;1.00;;;;;;5029558;28;20466;-72
2023/06/16 10:08:47;;;;;;;7.53;5.00;;;25.50;1.00;;;;;;5035059;28;20387;-73
2023/06/16 10:11:16;;;;;;;10.95;5.82;;;25.70;1.00;;;;;;5033973;28;20439;-73
2023/06/16 10:13:50;;;;;;;9.05;4.90;;;25.70;1.00;;;;;;5033426;28;20391;-72
2023/06/16 10:16:17;;;;;;;9.10;5.55;;;26.00;1.00;;;;;;5033329;28;20537;-74
2023/06/16 10:18:42;;;;;;;9.95;5.85;;;25.80;1.00;;;;;;5033407;28;20635;-72
2023/06/16 10:21:10;;;;;;;8.88;5.05;;;25.90;1.00;;;;;;5033467;28;20778;-73
2023/06/16 10:23:36;;;;;;;8.85;5.18;;;26.00;1.00;;;;;;5033680;28;20386;-72
2023/06/16 10:26:07;;;;;;;7.90;5.07;;;25.80;1.00;;;;;;5033199;28;20391;-73
2023/06/16 10:28:35;;;;;;;8.27;4.68;;;25.70;1.00;;;;;;5033198;28;20747;-71
2023/06/16 10:31:03;;;;;;;15.35;5.00;;;25.80;1.00;;;;;;5032835;28;20383;-72
2023/06/16 10:33:28;;;;;;;9.48;5.22;;;25.50;1.00;;;;;;5033126;28;20379;-72
2023/06/16 10:36:01;;;;;;;11.10;5.10;;;25.40;1.00;;;;;;5033113;28;20486;-71
2023/06/16 10:38:34;;;;;;;9.10;5.75;;;25.20;1.00;;;;;;5032897;28;20437;-72
2023/06/16 10:41:06;;;;;;;11.25;5.10;;;25.30;1.00;;;;;;5032838;28;20375;-74
2023/06/16 10:43:32;;;;;;;10.52;5.22;;;25.40;1.00;;;;;;5033271;28;20405;-74
2023/06/16 10:46:14;;;;;;;8.38;4.90;;;25.60;1.00;;;;;;5033157;28;20399;-73
2023/06/16 10:48:57;;;;;;;8.87;5.40;;;25.60;1.00;;;;;;5033939;28;20383;-73
2023/06/16 10:51:49;;;;;;;8.70;5.30;;;25.60;1.00;;;;;;5034183;28;20390;-73
2023/06/16 10:54:32;;;;;;;9.88;5.80;;;25.70;1.00;;;;;;5035633;28;20478;-73
2023/06/16 10:57:08;;;;;;;8.43;4.90;;;25.80;1.00;;;;;;5034708;28;20383;-73
2023/06/16 10:59:54;;;;;;;9.63;5.10;;;25.60;1.00;;;;;;5036651;28;20383;-73
2023/06/16 11:02:22;;;;;;;9.43;5.28;;;25.50;1.00;;;;;;5034666;28;20379;-72
2023/06/16 11:05:07;;;;;;;10.70;5.60;;;25.40;1.00;;;;;;5032403;28;20399;-72
2023/06/16 11:07:37;;;;;;;9.77;5.50;;;25.50;1.00;;;;;;5032294;28;20467;-72
2023/06/16 11:10:03;;;;;;;10.18;5.63;;;25.70;1.00;;;;;;5032607;28;20521;-71
2023/06/16 11:12:29;;;;;;;9.85;5.28;;;26.00;1.00;;;;;;5032100;28;20383;-73
2023/06/16 11:14:55;;;;;;;9.20;5.20;;;26.00;1.00;;;;;;5033063;28;20561;-73
2023/06/16 11:17:22;;;;;;;8.45;4.85;;;26.20;1.00;;;;;;5033835;28;20399;-73
2023/06/16 11:19:53;;;;;;;9.63;5.50;;;26.30;1.00;;;;;;5033925;28;20476;-72
2023/06/16 11:22:27;;;;;;;8.33;5.43;;;26.30;1.00;;;;;;5035458;28;20379;-73
2023/06/16 11:24:52;;;;;;;12.13;5.25;;;26.30;1.00;;;;;;5034794;28;20384;-72
2023/06/16 11:27:18;;;;;;;10.00;5.30;;;26.40;1.00;;;;;;5034122;28;20477;-73
2023/06/16 11:29:46;;;;;;;11.63;5.80;;;26.30;1.00;;;;;;5034155;28;20840;-72
2023/06/16 11:32:12;;;;;;;7.07;4.88;;;26.30;1.00;;;;;;5032633;28;20403;-73
2023/06/16 11:34:38;;;;;;;10.63;5.30;;;26.20;1.00;;;;;;5031694;28;20383;-73
2023/06/16 11:37:04;;;;;;;7.07;5.05;;;26.10;1.00;;;;;;5031927;28;20868;-74
2023/06/16 11:39:41;;;;;;;7.35;5.18;;;26.00;1.00;;;;;;5031625;28;20383;-73
2023/06/16 11:42:12;;;;;;;8.23;5.20;;;26.10;1.00;;;;;;5032102;28;20456;-74
2023/06/16 11:44:38;;;;;;;10.73;5.10;;;26.30;1.00;;;;;;5031658;28;20375;-73
2023/06/16 11:47:04;;;;;;;10.35;5.00;;;26.60;1.00;;;;;;5031730;28;20519;-72
2023/06/16 11:49:33;;;;;;;7.72;5.60;;;26.60;1.00;;;;;;5031292;28;20402;-73
2023/06/16 11:51:58;;;;;;;8.30;5.20;;;26.40;1.00;;;;;;5031574;28;20379;-72
2023/06/16 11:54:25;;;;;;;9.00;5.30;;;26.40;1.00;;;;;;5031392;28;20790;-74
2023/06/16 11:56:50;;;;;;;10.68;5.53;;;26.60;1.00;;;;;;5031640;28;20457;-74
2023/06/16 11:59:17;;;;;;;9.37;5.27;;;26.80;1.00;;;;;;5013623;28;20771;-73
2023/06/16 12:01:43;;;;;;;11.52;6.00;;;26.80;1.00;;;;;;5031300;28;20466;-72
2023/06/16 12:04:09;;;;;;;12.02;5.80;;;26.60;1.00;;;;;;5031735;28;20425;-72
2023/06/16 12:06:37;;;;;;;11.82;5.53;;;26.60;1.00;;;;;;5031222;28;20795;-72
2023/06/16 12:09:03;;;;;;;14.60;5.70;;;26.90;1.00;;;;;;5031032;28;20394;-73
2023/06/16 12:11:29;;;;;;;10.05;5.85;;;26.60;1.00;;;;;;5030964;28;20465;-72
2023/06/16 12:13:56;;;;;;;7.88;5.50;;;26.50;1.00;;;;;;5030965;28;20391;-72
2023/06/16 12:16:22;;;;;;;14.07;6.68;;;26.60;1.00;;;;;;5013246;28;20399;-71
2023/06/16 12:18:50;;;;;;;10.80;5.80;;;26.50;1.00;;;;;;5031106;28;20734;-72
2023/06/16 12:21:19;;;;;;;11.50;6.28;;;26.50;1.00;;;;;;5030923;28;20804;-73
2023/06/16 12:23:52;;;;;;;11.20;6.03;;;26.80;1.00;;;;;;5031110;28;20387;-72
2023/06/16 12:26:28;;;;;;;8.25;5.63;;;26.90;1.00;;;;;;5030875;28;20383;-72
2023/06/16 12:28:54;;;;;;;17.40;6.60;;;27.30;1.00;;;;;;5030646;28;20453;-74
2023/06/16 12:31:21;;;;;;;9.45;5.80;;;27.70;1.00;;;;;;5030600;28;20387;-72
2023/06/16 12:33:52;;;;;;;10.50;6.28;;;27.80;1.00;;;;;;5030794;28;20430;-72
2023/06/16 12:36:17;;;;;;;11.20;5.97;;;27.80;1.00;;;;;;5030875;28;20483;-72
2023/06/16 12:38:43;;;;;;;11.93;6.20;;;27.40;1.00;;;;;;5030896;28;20939;-72
2023/06/16 12:41:12;;;;;;;10.77;6.75;;;27.00;1.00;;;;;;5031116;28;20435;-73
2023/06/16 12:43:46;;;;;;;12.93;5.85;;;27.00;1.00;;;;;;5031113;28;20398;-72